首页
METAR-TAF:

METAR-TAF

机场 :

仁川國際機場

仁川国际机场, 大韩民国

纬度: 37-28N, 经度: 126-27E, 海拔: 7米

当前天气观测

该预报发布于16分钟前的16:30 UTC
风速5节,风向,在南转南东西南之间变化
温度 13°C
湿度 88%
气压 1010 hPa
能見度: 9000
散云层高于500英尺
多云层高于20000英尺

METAR: RKSI 011630Z 18005KT 150V220 9000 SCT005 BKN200 13/11 Q1010 NOSIG

时间: 01:46 (16:46 UTC)

预报

该预报发布于3小时和6分钟前的13:40 UTC
预报有效从01日的 14点(UTC)到 02日的 18点(UTC)
风速5节,风向西南
能見度: 6000
散云层高于500英尺
成为
从 01日的 18点(UTC)到 01日的 19点(UTC)
风速6节,风向
能見度: 4200
轻雾
成为
从 01日的 20点(UTC)到 01日的 21点(UTC)
风速7节,风向南转南东
能見度: 6000
散云层高于3000英尺
多云层高于10000英尺
成为
从 02日的 02点(UTC)到 02日的 03点(UTC)
风速15节,风向南转南东,有时为25节阵风
能見度: 4200
散云层高于1000英尺
多云层高于2500英尺
阴天层高于8000英尺
小雨
短暂存在
从 02日的 06点(UTC)到 02日的 08点(UTC)
散云层高于1500英尺, 积雨云.
多云层高于2500英尺
阴天层高于7000英尺
雷暴, 雨
成为
从 02日的 13点(UTC)到 02日的 14点(UTC)
风速8节,风向南转西南
能見度: 2800
多云层高于800英尺
多云层高于2000英尺
轻雾

TAF: RKSI 011340Z 0114/0218 23005KT 6000 SCT005 TN15/0118Z TX21/0202Z BECMG 0118/0119 18006KT 4200 BR BECMG 0120/0121 15007KT 6000 NSW SCT030 BKN100 BECMG 0202/0203 16015G25KT 4200 -RA SCT010 BKN025 OVC080 TEMPO 0206/0208 TSRA SCT015CB BKN025 OVC070 BECMG 0213/0214 20008KT 2800 BR BKN008 BKN020

超过4000个机场的气象观测和天气预报(METAR&TAF报告)。

可查询的气象台以黄色和红色小点在地图上表示。

将鼠标移到小点上方,可查看气象台名称。

然后点击查看天气观测和预报。

如需切换地图:点击带黑十字的绿色按钮放大地图;点击带横线的绿色按钮缩小地图;或者点击绿色箭头查看邻近地区的地图。


METAR-TAF: